Schedule Details

Flight Number: CPX306
Departure: Chicago/Rockford International Airport (KRFD) at N/A
Arrival: Seattle-Tacoma International Airport (KSEA) at N/A
Route: RFD COTON J30 ODI KP90G KP09A DIK KU15Q GEG GLASR1


Current Weather Information
KRFD 180642Z 35010KT 1 1/2SM -SN BR OVC026 M07/M09 A3004 RMK AO2 P0001 T10671089
KSEA 180553Z 14005KT 10SM FEW026 SCT110 03/01 A3030 RMK AO2 SLP271 T00280011 10061 20022 51012

Route Map